Weather History for Montevideo, MN

Change the Weather History Date:

Wednesday, January 22, 2014

  Actual Average Record
Temperature  
Mean Temperature 0 °F -  
Max Temperature 12 °F 25 °F 50 °F (1981)
Min Temperature -11 °F 5 °F -30 °F (1954)
Degree Days  
Heating Degree Days 64    
Moisture  
Dew Point -4 °F    
Average Humidity 86    
Maximum Humidity 92    
Minimum Humidity 77    
Precipitation  
Precipitation 0.00 in - - ()
Sea Level Pressure  
Sea Level Pressure 30.27 in    
Wind  
Wind Speed 19 mph (North)    
Max Wind Speed 34 mph    
Max Gust Speed 43 mph    
Visibility 5 miles    
Events Snow    
Averages and records for this station are not official NWS values.
T = Trace of Precipitation, MM = Missing Value Source: NWS Daily Summary

Daily Weather History Graph

Daily Weather History Graph

Search for Another Location

Airport:

Trip Planner

Search our weather history database for the weather conditions in past years. The results will help you decide how hot, cold, wet, or windy it might be!

Date:

Astronomy

Jan. 22, 2014 Rise Set
Actual Time 7:52 AM CST 5:16 PM CST
Civil Twilight 7:20 AM CST 5:49 PM CST
Nautical Twilight 6:44 AM CST 6:24 PM CST
Astronomical Twilight 6:09 AM CST 6:59 PM CST
Moon No Moon Rise 10:36 AM CST (1/22)
Length of Visible Light 10h 28m
Length of Day
9h 24m
Waning Gibbous, 65% of the Moon is Illuminated
Jan 22
Waning Gibbous
Jan 23
Last Quarter
Jan 30
New
Feb 6
First Quarter
Feb 14
Full

Hourly Weather History & Observations

Time (CST) Temp. Windchill Dew Point Humidity Pressure Visibility Wind Dir Wind Speed Gust Speed Precip Events Conditions
12:14 AM 12.2 °F -6.3 °F 8.6 °F 85% 30.00 in 5.0 mi North 20.7 mph 25.3 mph N/A Snow Light Snow
12:33 AM 12.2 °F -5.3 °F 8.6 °F 85% 30.01 in 7.0 mi North 18.4 mph 26.5 mph N/A Snow Light Snow
12:54 AM 12.2 °F -4.3 °F 8.6 °F 85% 30.02 in 7.0 mi North 16.1 mph - N/A Snow Light Snow
1:14 AM 10.4 °F -8.2 °F 6.8 °F 85% 30.02 in 5.0 mi North 19.6 mph 26.5 mph N/A Snow Light Snow
1:33 AM 8.6 °F -9.5 °F 5.0 °F 85% 30.03 in 10.0 mi North 17.3 mph 21.9 mph N/A   Overcast
1:54 AM 8.6 °F -10.0 °F 5.0 °F 85% 30.02 in 10.0 mi North 18.4 mph 25.3 mph N/A   Overcast
2:14 AM 8.6 °F -8.9 °F 5.0 °F 85% 30.03 in 7.0 mi North 16.1 mph 25.3 mph N/A   Overcast
2:33 AM 8.6 °F -8.3 °F 5.0 °F 85% 30.03 in 10.0 mi North 15.0 mph 20.7 mph N/A   Overcast
2:54 AM 8.6 °F -9.5 °F 5.0 °F 85% 30.03 in 10.0 mi North 17.3 mph 24.2 mph N/A   Overcast
3:14 AM 8.6 °F -7.7 °F 5.0 °F 85% 30.03 in 10.0 mi North 13.8 mph - N/A   Overcast
3:33 AM 8.6 °F -6.3 °F 3.2 °F 79% 30.03 in 10.0 mi North 11.5 mph - N/A   Overcast
3:54 AM 8.6 °F -5.5 °F 5.0 °F 85% 30.03 in 10.0 mi North 10.4 mph - N/A   Overcast
4:11 AM 8.6 °F -3.7 °F 6.8 °F 92% 30.03 in 10.0 mi North 8.1 mph - N/A   Overcast
4:34 AM 10.4 °F -3.3 °F 6.8 °F 85% 30.02 in 10.0 mi NNW 10.4 mph - N/A   Overcast
4:54 AM 10.4 °F -1.5 °F 6.8 °F 85% 30.00 in 10.0 mi NW 8.1 mph - N/A   Overcast
5:13 AM 10.4 °F -2.4 °F 6.8 °F 85% 30.02 in 10.0 mi North 9.2 mph - N/A   Overcast
5:34 AM 10.4 °F -1.5 °F 6.8 °F 85% 30.03 in 10.0 mi North 8.1 mph - N/A   Overcast
5:54 AM 10.4 °F -4.1 °F 6.8 °F 85% 30.04 in 7.0 mi North 11.5 mph - N/A Snow Light Snow
6:13 AM 8.6 °F -6.3 °F 6.8 °F 92% 30.04 in 4.0 mi NNE 11.5 mph - N/A Snow Light Snow
6:34 AM 8.6 °F -6.3 °F 5.0 °F 85% 30.06 in 4.0 mi North 11.5 mph 19.6 mph N/A Snow Light Snow
6:54 AM 8.6 °F -7.7 °F 5.0 °F 85% 30.07 in 5.0 mi North 13.8 mph 19.6 mph N/A   Overcast
7:13 AM 8.6 °F -11.4 °F 5.0 °F 85% 30.08 in 3.0 mi North 21.9 mph 28.8 mph N/A   Overcast
7:34 AM 8.6 °F -10.5 °F 5.0 °F 85% 30.09 in 2.0 mi North 19.6 mph 27.6 mph N/A   Overcast
7:54 AM 6.8 °F -15.5 °F 3.2 °F 85% 30.10 in 1.2 mi NNE 26.5 mph 34.5 mph N/A Snow Light Snow
8:13 AM 5.0 °F -15.7 °F 1.4 °F 85% 30.11 in 1.5 mi North 20.7 mph 36.8 mph N/A Snow Light Snow
8:34 AM 3.2 °F -18.6 °F 1.4 °F 92% 30.13 in 0.8 mi NNE 21.9 mph 28.8 mph N/A Snow Light Snow
8:54 AM 1.4 °F -21.0 °F -0.4 °F 92% 30.15 in 0.8 mi North 21.9 mph 34.5 mph N/A Snow Light Snow
9:14 AM -0.4 °F -26.4 °F -2.2 °F 92% 30.17 in 0.5 mi North 29.9 mph 35.7 mph N/A Snow Light Snow
9:34 AM -2.2 °F -27.6 °F -5.8 °F 85% 30.18 in 1.0 mi North 26.5 mph 32.2 mph N/A Snow Light Snow
9:54 AM -2.2 °F -28.0 °F -5.8 °F 85% 30.19 in 0.5 mi North 27.6 mph 39.1 mph N/A Snow Light Snow
10:14 AM -2.2 °F -28.0 °F -5.8 °F 85% 30.21 in 0.5 mi North 27.6 mph 38.0 mph N/A Snow Light Snow
10:34 AM -2.2 °F -28.0 °F -5.8 °F 85% 30.23 in 0.5 mi North 27.6 mph 38.0 mph N/A Snow Light Snow
10:54 AM -2.2 °F -27.6 °F -5.8 °F 85% 30.24 in 0.5 mi North 26.5 mph 38.0 mph N/A Snow Light Snow
11:14 AM -2.2 °F -29.2 °F -5.8 °F 85% 30.25 in 0.8 mi North 31.1 mph 35.7 mph N/A Snow Light Snow
11:34 AM -4.0 °F -32.8 °F -7.6 °F 85% 30.25 in 0.5 mi North 34.5 mph 42.6 mph N/A Snow Light Snow
11:54 AM -4.0 °F -28.6 °F -5.8 °F 92% 30.26 in 1.0 mi North 23.0 mph 35.7 mph N/A Snow Light Snow
12:14 PM -4.0 °F -30.0 °F -7.6 °F 85% 30.27 in 1.0 mi North 26.5 mph 36.8 mph N/A Snow Light Snow
12:34 PM -4.0 °F -28.1 °F -7.6 °F 85% 30.27 in 1.2 mi North 21.9 mph 40.3 mph N/A Snow Light Snow
12:54 PM -5.8 °F -32.0 °F -7.6 °F 92% 30.27 in 1.0 mi North 25.3 mph 34.5 mph N/A Snow Light Snow
1:14 PM -5.8 °F -33.7 °F -7.6 °F 92% 30.28 in 1.2 mi North 29.9 mph 36.8 mph N/A   Overcast
1:34 PM -5.8 °F -32.4 °F -7.6 °F 92% 30.29 in 1.5 mi North 26.5 mph 36.8 mph N/A Snow Light Snow
1:54 PM -5.8 °F -31.5 °F -7.6 °F 92% 30.30 in 1.2 mi North 24.2 mph 36.8 mph N/A Snow Light Snow
2:14 PM -5.8 °F -33.3 °F -7.6 °F 92% 30.31 in 1.2 mi North 28.8 mph 40.3 mph N/A   Overcast
2:34 PM -5.8 °F -32.4 °F -9.4 °F 84% 30.32 in 1.2 mi North 26.5 mph 34.5 mph N/A   Overcast
2:54 PM -5.8 °F -32.0 °F -7.6 °F 92% 30.34 in 1.8 mi North 25.3 mph 34.5 mph N/A   Overcast
3:14 PM -5.8 °F -32.9 °F -9.4 °F 84% 30.35 in 1.2 mi North 27.6 mph 38.0 mph N/A   Overcast
3:34 PM -5.8 °F -32.0 °F -9.4 °F 84% 30.37 in 2.5 mi North 25.3 mph 32.2 mph N/A   Overcast
3:54 PM -5.8 °F -28.8 °F -9.4 °F 84% 30.39 in 3.0 mi North 18.4 mph 33.4 mph N/A   Overcast
4:14 PM -5.8 °F -32.0 °F -9.4 °F 84% 30.40 in 4.0 mi North 25.3 mph 32.2 mph N/A   Overcast
4:34 PM -7.6 °F -32.9 °F -9.4 °F 92% 30.41 in 3.0 mi North 21.9 mph 28.8 mph N/A   Overcast
4:54 PM -7.6 °F -31.7 °F -9.4 °F 92% 30.43 in 3.0 mi North 19.6 mph 27.6 mph N/A   Overcast
5:14 PM -7.6 °F -31.7 °F -11.2 °F 84% 30.43 in 5.0 mi North 19.6 mph 31.1 mph N/A   Overcast
5:34 PM -7.6 °F -33.4 °F -11.2 °F 84% 30.44 in 10.0 mi North 23.0 mph 32.2 mph N/A   Overcast
5:55 PM -7.6 °F -32.3 °F -11.2 °F 84% 30.45 in 7.0 mi North 20.7 mph 27.6 mph N/A   Overcast
6:14 PM -7.6 °F -34.4 °F -11.2 °F 84% 30.46 in 5.0 mi North 25.3 mph 33.4 mph N/A   Overcast
6:34 PM -7.6 °F -33.4 °F -11.2 °F 84% 30.47 in 4.0 mi North 23.0 mph 31.1 mph N/A   Overcast
6:55 PM -7.6 °F -34.4 °F -11.2 °F 84% 30.48 in 7.0 mi North 25.3 mph 29.9 mph N/A   Overcast
7:14 PM -9.4 °F -35.8 °F -11.2 °F 92% 30.49 in 10.0 mi North 23.0 mph 31.1 mph N/A   Scattered Clouds
7:34 PM -9.4 °F -35.2 °F -11.2 °F 92% 30.50 in 10.0 mi North 21.9 mph 31.1 mph N/A   Mostly Cloudy
7:55 PM -7.6 °F -31.7 °F -11.2 °F 84% 30.52 in 7.0 mi North 19.6 mph 27.6 mph N/A   Overcast
8:14 PM -9.4 °F -33.5 °F -11.2 °F 92% 30.52 in 10.0 mi North 18.4 mph 27.6 mph N/A   Mostly Cloudy
8:34 PM -9.4 °F -34.1 °F -13.0 °F 84% 30.53 in 10.0 mi North 19.6 mph 29.9 mph N/A   Mostly Cloudy
8:54 PM -9.4 °F -35.2 °F -13.0 °F 84% 30.54 in 7.0 mi North 21.9 mph 31.1 mph N/A   Overcast
9:14 PM -9.4 °F -34.1 °F -13.0 °F 84% 30.55 in 7.0 mi North 19.6 mph 27.6 mph N/A   Overcast
9:34 PM -9.4 °F -34.1 °F -13.0 °F 84% 30.56 in 7.0 mi North 19.6 mph 25.3 mph N/A   Overcast
9:54 PM -9.4 °F -32.1 °F -14.8 °F 77% 30.57 in 10.0 mi North 16.1 mph 25.3 mph N/A   Overcast
10:14 PM -9.4 °F -30.6 °F -14.8 °F 77% 30.58 in 7.0 mi North 13.8 mph 20.7 mph N/A   Overcast
10:34 PM -11.2 °F -32.1 °F -14.8 °F 84% 30.59 in 10.0 mi North 12.7 mph 17.3 mph N/A   Overcast
10:54 PM -11.2 °F -33.7 °F -14.8 °F 84% 30.59 in 10.0 mi North 15.0 mph 18.4 mph N/A   Overcast
11:14 PM -9.4 °F -34.7 °F -13.0 °F 84% 30.59 in 10.0 mi North 20.7 mph 24.2 mph N/A   Overcast
11:34 PM -9.4 °F -33.5 °F -13.0 °F 84% 30.59 in 7.0 mi North 18.4 mph 25.3 mph N/A   Overcast
11:54 PM -9.4 °F -34.1 °F -13.0 °F 84% 30.60 in 3.0 mi North 19.6 mph 27.6 mph N/A   Overcast